Plumerville, Arkansas
Current Conditions -  °F | °C
As of 3:24 AM on Sunday 26 Oct 2014 (Local Time) from KRUE Reporting Station
Haze Haze  
Wind Chill: 57°   Ceiling: 200
Heat Index: 57°   Visibility: 0.75mi
Dew Point: 56°   Wind: 0mph
Humidity: 96%   Direction: NA
Pressure: 30"   Gusts: NA
Location:  35.16°N, 92.64°W
Report Text: KRUE 260824Z AUTO 00000KT 3/4SM BR VV002 14/13 A3000 RMK AO2 T01390133
Loading
Personal Weather Stations






























Interactive Weather Map
Tropical Storm Tracking
New forecast layout! Learn more

10-Day Weather Forecast

Advertisements
Track Severe Weather on mobile